Time;durP1;ratioP1;P1;durP2;ratioP2;P2;SDS_P1;SDS_P2;PMS_P1;PMS_P2;Temp;Humidity;BMP_temperature;BMP_pressure;BME280_temperature;BME280_humidity;BME280_pressure;Samples;Min_cycle;Max_cycle;Signal;HPM_P1;HPM_P2
2022/06/23 00:00:01;;;;;;;5.33;4.80;;;24.00;99.90;;;;;;6246487;23;20785;-87
2022/06/23 00:02:30;;;;;;;4.93;4.43;;;24.00;99.90;;;;;;6246748;23;20448;-91
2022/06/23 00:05:03;;;;;;;4.80;3.97;;;24.00;99.90;;;;;;6246669;23;20714;-88
2022/06/23 00:07:32;;;;;;;5.43;4.03;;;23.90;99.90;;;;;;6247263;23;20489;-90
2022/06/23 00:10:00;;;;;;;5.43;4.07;;;23.90;99.90;;;;;;6249350;23;20387;-88
2022/06/23 00:12:39;;;;;;;4.90;3.50;;;23.90;99.90;;;;;;6247453;23;20480;-89
2022/06/23 00:15:04;;;;;;;5.90;4.60;;;23.80;99.90;;;;;;6248330;23;20384;-90
2022/06/23 00:17:44;;;;;;;14.33;4.60;;;23.80;99.90;;;;;;6248446;23;20464;-87
2022/06/23 00:20:32;;;;;;;4.93;4.53;;;23.80;99.90;;;;;;6250426;23;20154;-90
2022/06/23 00:23:06;;;;;;;7.23;4.40;;;23.80;99.90;;;;;;6249365;23;20476;-88
2022/06/23 00:26:00;;;;;;;5.17;4.17;;;23.70;99.90;;;;;;6249071;23;20430;-90
2022/06/23 00:28:41;;;;;;;5.77;4.33;;;23.70;99.90;;;;;;6248971;23;20745;-88
2022/06/23 00:31:28;;;;;;;5.27;3.87;;;23.70;99.90;;;;;;6248915;23;20461;-90
2022/06/23 00:33:55;;;;;;;6.83;4.40;;;23.60;99.90;;;;;;6248858;23;20375;-90
2022/06/23 00:36:45;;;;;;;7.27;4.50;;;23.60;99.90;;;;;;6249959;23;20383;-88
2022/06/23 00:39:32;;;;;;;5.37;3.77;;;23.60;99.90;;;;;;6249055;23;20379;-87
2022/06/23 00:41:59;;;;;;;5.80;4.00;;;23.50;99.90;;;;;;6250746;23;20395;-87
2022/06/23 00:44:34;;;;;;;4.83;4.33;;;23.50;99.90;;;;;;6249378;23;20382;-88
2022/06/23 00:47:05;;;;;;;6.33;5.00;;;23.50;99.90;;;;;;6249826;23;20565;-88
2022/06/23 00:49:39;;;;;;;6.60;4.17;;;23.50;99.90;;;;;;6249971;23;20407;-90
2022/06/23 00:52:45;;;;;;;6.40;5.20;;;23.40;99.90;;;;;;6249791;23;20427;-88
2022/06/23 00:55:34;;;;;;;4.20;3.80;;;23.40;99.90;;;;;;6250977;23;20370;-88
2022/06/23 00:58:07;;;;;;;4.50;4.10;;;23.40;99.90;;;;;;6230472;23;20426;-90
2022/06/23 01:00:39;;;;;;;4.70;4.03;;;23.40;99.90;;;;;;6248377;23;20474;-90
2022/06/23 01:03:08;;;;;;;5.37;4.47;;;23.30;99.90;;;;;;6247142;23;20493;-90
2022/06/23 01:05:43;;;;;;;5.23;4.27;;;23.30;99.90;;;;;;6249120;23;20453;-90
2022/06/23 01:08:32;;;;;;;6.37;5.10;;;23.30;99.90;;;;;;6247868;23;20761;-87
2022/06/23 01:11:36;;;;;;;4.67;4.27;;;23.20;99.90;;;;;;6248804;23;20407;-91
2022/06/23 01:14:25;;;;;;;6.40;4.97;;;23.20;99.90;;;;;;6247761;23;20402;-89
2022/06/23 01:17:31;;;;;;;5.60;4.63;;;23.10;99.90;;;;;;6236336;23;20418;-90
2022/06/23 01:20:14;;;;;;;5.77;4.70;;;23.10;99.90;;;;;;6248099;23;20545;-88
2022/06/23 01:22:49;;;;;;;8.43;5.33;;;23.10;99.90;;;;;;6247174;23;20435;-90
2022/06/23 01:25:44;;;;;;;11.67;5.60;;;23.00;99.90;;;;;;6246593;23;20944;-90
2022/06/23 01:28:35;;;;;;;5.83;4.90;;;22.90;99.90;;;;;;6225668;22;20411;-87
2022/06/23 01:31:01;;;;;;;7.20;5.50;;;22.80;99.90;;;;;;6204173;23;20536;-90
2022/06/23 01:33:56;;;;;;;8.40;6.00;;;22.80;99.90;;;;;;6247281;23;20421;-88
2022/06/23 01:36:37;;;;;;;7.83;6.00;;;22.70;99.90;;;;;;6248086;23;20383;-88
2022/06/23 01:39:44;;;;;;;5.47;4.97;;;22.70;99.90;;;;;;6250664;23;20452;-90
2022/06/23 01:42:28;;;;;;;8.80;5.67;;;22.60;99.90;;;;;;6171003;23;20420;-88
2022/06/23 01:45:04;;;;;;;7.83;5.93;;;22.60;99.90;;;;;;6263345;23;20347;-88
2022/06/23 01:47:35;;;;;;;13.93;6.37;;;22.60;99.90;;;;;;6245938;23;20449;-91
2022/06/23 01:50:40;;;;;;;7.70;5.13;;;22.50;99.90;;;;;;6248077;23;20382;-88
2022/06/23 01:53:14;;;;;;;7.40;5.57;;;22.50;99.90;;;;;;6247069;23;20414;-88
2022/06/23 01:56:17;;;;;;;6.90;5.20;;;22.50;99.90;;;;;;6246181;23;20409;-88
2022/06/23 01:58:55;;;;;;;5.80;5.10;;;22.50;99.90;;;;;;6243244;23;20391;-88
2022/06/23 02:01:37;;;;;;;7.83;5.87;;;22.40;99.90;;;;;;6247489;23;20366;-90
2022/06/23 02:04:24;;;;;;;5.40;4.70;;;22.40;99.90;;;;;;6248375;23;20359;-90
2022/06/23 02:06:58;;;;;;;6.83;4.90;;;22.30;99.90;;;;;;6247387;23;20446;-90
2022/06/23 02:09:37;;;;;;;8.23;5.13;;;22.20;99.90;;;;;;6249367;23;20401;-91
2022/06/23 02:12:11;;;;;;;4.83;4.40;;;22.20;99.90;;;;;;6249560;23;20489;-88
2022/06/23 02:15:05;;;;;;;8.00;4.93;;;22.10;99.90;;;;;;6247829;23;20378;-91
2022/06/23 02:17:44;;;;;;;5.83;5.13;;;22.10;99.90;;;;;;6248452;23;20434;-88
2022/06/23 02:20:36;;;;;;;5.80;4.70;;;22.10;99.90;;;;;;6250036;23;20425;-88
2022/06/23 02:23:30;;;;;;;7.70;4.90;;;22.10;99.90;;;;;;6251807;23;20486;-89
2022/06/23 02:26:11;;;;;;;5.33;4.50;;;22.10;99.90;;;;;;6250401;23;20449;-91
2022/06/23 02:28:47;;;;;;;5.60;4.50;;;22.10;99.90;;;;;;6252610;23;20430;-90
2022/06/23 02:31:23;;;;;;;8.00;4.80;;;22.00;99.90;;;;;;6251732;23;20453;-88
2022/06/23 02:33:56;;;;;;;5.33;4.83;;;22.00;99.90;;;;;;6251474;23;20408;-88
2022/06/23 02:36:33;;;;;;;5.03;4.63;;;22.00;99.90;;;;;;6252340;23;20444;-88
2022/06/23 02:39:07;;;;;;;4.77;4.40;;;22.00;99.90;;;;;;6252020;23;20461;-90
2022/06/23 02:41:45;;;;;;;6.03;4.27;;;22.00;99.90;;;;;;6251287;23;20936;-87
2022/06/23 02:44:33;;;;;;;4.73;4.23;;;22.00;99.90;;;;;;6252181;23;20397;-88
2022/06/23 02:47:29;;;;;;;6.13;3.93;;;22.00;99.90;;;;;;6256436;22;20453;-88
2022/06/23 02:50:17;;;;;;;6.60;4.50;;;21.90;99.90;;;;;;6264866;22;20404;-89
2022/06/23 02:53:03;;;;;;;5.73;4.40;;;21.90;99.90;;;;;;6264536;22;20439;-91
2022/06/23 02:55:47;;;;;;;4.23;3.83;;;21.90;99.90;;;;;;6261147;22;20928;-91
2022/06/23 02:58:34;;;;;;;4.10;3.70;;;21.80;99.90;;;;;;6283954;22;20404;-88
2022/06/23 03:01:12;;;;;;;4.37;3.60;;;21.90;99.90;;;;;;6253391;22;20386;-90
2022/06/23 03:04:10;;;;;;;4.17;3.33;;;21.80;99.90;;;;;;6252727;22;20801;-92
2022/06/23 03:06:45;;;;;;;5.20;3.50;;;21.80;99.90;;;;;;6252231;22;20902;-87
2022/06/23 03:09:19;;;;;;;3.90;3.43;;;21.80;99.90;;;;;;6254186;22;20484;-91
2022/06/23 03:11:59;;;;;;;4.43;3.87;;;21.70;99.90;;;;;;6254077;22;20755;-90
2022/06/23 03:14:39;;;;;;;4.30;3.43;;;21.70;99.90;;;;;;6281483;22;20456;-88
2022/06/23 03:17:25;;;;;;;3.93;3.57;;;21.70;99.90;;;;;;6252864;22;20421;-91
2022/06/23 03:20:13;;;;;;;6.60;3.50;;;21.60;99.90;;;;;;6254843;22;20428;-90
2022/06/23 03:22:55;;;;;;;4.73;4.00;;;21.60;99.90;;;;;;6255120;22;20744;-88
2022/06/23 03:25:51;;;;;;;4.30;3.83;;;21.50;99.90;;;;;;6282691;22;20440;-90
2022/06/23 03:28:28;;;;;;;5.63;4.17;;;21.50;99.90;;;;;;6255599;22;20898;-90
2022/06/23 03:31:20;;;;;;;4.43;4.03;;;21.50;99.90;;;;;;6255832;22;20416;-91
2022/06/23 03:34:06;;;;;;;4.90;4.03;;;21.50;99.90;;;;;;6281225;22;20413;-88
2022/06/23 03:36:45;;;;;;;5.60;4.10;;;21.40;99.90;;;;;;6253214;22;20520;-91
2022/06/23 03:42:28;;;;;;;4.70;3.67;;;21.40;99.90;;;;;;6281219;22;20467;-88
2022/06/23 03:45:20;;;;;;;5.50;4.10;;;21.40;99.90;;;;;;6254332;22;20397;-91
2022/06/23 03:47:48;;;;;;;4.10;3.70;;;21.40;99.90;;;;;;6249274;23;20774;-91
2022/06/23 03:50:45;;;;;;;3.93;3.63;;;21.30;99.90;;;;;;6250422;23;20387;-91
2022/06/23 03:53:29;;;;;;;5.73;4.13;;;21.30;99.90;;;;;;6252354;23;20390;-94
2022/06/23 03:56:03;;;;;;;8.07;3.77;;;21.20;99.90;;;;;;6250374;23;20709;-90
2022/06/23 03:58:28;;;;;;;5.07;4.57;;;21.20;99.90;;;;;;6248975;23;20855;-93
2022/06/23 04:01:14;;;;;;;4.53;3.90;;;21.20;99.90;;;;;;6248326;23;20441;-92
2022/06/23 04:04:02;;;;;;;5.80;4.60;;;21.20;99.90;;;;;;6250109;23;20211;-93
2022/06/23 04:06:36;;;;;;;6.43;3.43;;;21.10;99.90;;;;;;6248946;23;20445;-91
2022/06/23 04:09:24;;;;;;;7.80;4.30;;;21.10;99.90;;;;;;6252855;23;20466;-93
2022/06/23 04:11:58;;;;;;;4.30;3.10;;;21.00;99.90;;;;;;6255640;23;20720;-93
2022/06/23 04:14:51;;;;;;;4.00;3.50;;;20.90;99.90;;;;;;6255202;22;20494;-93
2022/06/23 04:17:23;;;;;;;4.30;3.60;;;20.70;99.90;;;;;;6248662;23;20411;-91
2022/06/23 04:20:00;;;;;;;5.33;4.40;;;20.60;99.90;;;;;;6245383;23;20387;-91
2022/06/23 04:22:48;;;;;;;4.77;3.70;;;20.60;99.90;;;;;;6254160;23;20424;-91
2022/06/23 04:25:34;;;;;;;5.80;3.77;;;20.60;99.90;;;;;;6246730;23;20385;-93
2022/06/23 04:28:01;;;;;;;4.40;3.73;;;20.70;99.90;;;;;;6249042;23;20402;-91
2022/06/23 04:30:27;;;;;;;4.77;3.40;;;20.70;99.90;;;;;;6247859;23;20510;-93
2022/06/23 04:32:55;;;;;;;4.53;3.47;;;20.70;99.90;;;;;;6246537;23;20425;-94
2022/06/23 04:35:27;;;;;;;4.60;3.80;;;20.80;99.90;;;;;;6246397;23;20385;-90
2022/06/23 04:38:01;;;;;;;3.97;3.60;;;20.80;99.90;;;;;;6246371;23;20413;-93
2022/06/23 04:40:30;;;;;;;6.40;4.27;;;20.90;99.90;;;;;;6246505;23;20476;-93
2022/06/23 04:43:02;;;;;;;3.97;3.60;;;20.90;99.90;;;;;;6247169;23;20426;-91
2022/06/23 04:45:38;;;;;;;6.90;3.83;;;20.90;99.90;;;;;;6247206;23;20426;-93
2022/06/23 04:48:11;;;;;;;6.20;3.87;;;20.80;99.90;;;;;;6247011;23;20533;-93
2022/06/23 04:50:48;;;;;;;5.93;3.70;;;20.80;99.90;;;;;;6246702;23;20386;-93
2022/06/23 04:53:21;;;;;;;4.73;4.07;;;20.80;99.90;;;;;;6246370;23;20457;-94
2022/06/23 04:56:01;;;;;;;5.00;4.50;;;20.80;99.90;;;;;;6246592;23;20745;-91
2022/06/23 04:58:28;;;;;;;4.03;3.63;;;20.80;99.90;;;;;;6248967;23;20424;-93
2022/06/23 05:00:54;;;;;;;4.47;4.07;;;20.80;99.90;;;;;;6252398;23;20852;-93
2022/06/23 05:03:25;;;;;;;6.33;4.57;;;20.90;99.90;;;;;;6248704;23;20910;-94
2022/06/23 05:06:11;;;;;;;4.23;3.83;;;20.90;99.90;;;;;;6250955;23;20453;-90
2022/06/23 05:08:40;;;;;;;5.03;4.30;;;21.00;99.90;;;;;;6250993;23;20768;-90
2022/06/23 05:11:13;;;;;;;4.83;4.33;;;21.00;99.90;;;;;;6249775;23;20417;-94
2022/06/23 05:13:53;;;;;;;6.07;5.00;;;21.10;99.90;;;;;;6251624;23;20859;-93
2022/06/23 05:16:47;;;;;;;6.83;4.90;;;21.20;99.90;;;;;;6249770;23;20377;-90
2022/06/23 05:19:27;;;;;;;7.03;3.87;;;21.20;99.90;;;;;;6254855;23;20719;-93
2022/06/23 05:21:57;;;;;;;4.33;3.87;;;21.30;99.90;;;;;;6243716;23;20457;-91
2022/06/23 05:24:33;;;;;;;4.10;3.70;;;21.30;99.90;;;;;;6246316;23;20777;-90
2022/06/23 05:27:07;;;;;;;5.77;4.50;;;21.40;99.90;;;;;;6247526;22;20765;-90
2022/06/23 05:29:36;;;;;;;4.07;3.77;;;21.40;99.90;;;;;;6256441;23;20382;-92
2022/06/23 05:32:21;;;;;;;4.20;3.80;;;21.40;99.90;;;;;;6245600;23;20734;-93
2022/06/23 05:35:34;;;;;;;5.53;4.37;;;21.40;99.90;;;;;;6248186;22;20378;-92
2022/06/23 05:38:19;;;;;;;4.50;4.10;;;21.40;99.90;;;;;;6226373;23;20418;-94
2022/06/23 05:40:56;;;;;;;7.57;5.13;;;21.40;99.90;;;;;;6245940;23;20487;-90
2022/06/23 05:43:24;;;;;;;4.60;3.97;;;21.40;99.90;;;;;;6248525;23;20414;-94
2022/06/23 05:45:56;;;;;;;5.17;4.67;;;21.40;99.90;;;;;;6247501;23;20445;-93
2022/06/23 05:48:34;;;;;;;4.27;3.87;;;21.40;99.90;;;;;;6270616;22;20512;-93
2022/06/23 05:51:03;;;;;;;4.37;3.97;;;21.50;99.90;;;;;;6279060;22;20349;-90
2022/06/23 05:54:13;;;;;;;5.13;3.73;;;21.50;99.90;;;;;;6249664;22;20422;-91
2022/06/23 05:56:51;;;;;;;4.60;4.17;;;21.50;99.90;;;;;;6250859;22;20500;-91
2022/06/23 05:59:28;;;;;;;4.27;3.83;;;21.50;99.90;;;;;;6253310;22;20440;-93
2022/06/23 06:02:10;;;;;;;7.13;6.10;;;21.50;99.90;;;;;;6253772;22;20470;-91
2022/06/23 06:04:43;;;;;;;4.80;4.20;;;21.60;99.90;;;;;;6254494;22;20382;-91
2022/06/23 06:07:17;;;;;;;5.03;4.50;;;21.60;99.90;;;;;;6282894;22;20924;-94
2022/06/23 06:09:43;;;;;;;5.63;4.57;;;21.60;99.90;;;;;;6259478;22;20402;-91
2022/06/23 06:12:21;;;;;;;4.90;4.40;;;21.60;99.90;;;;;;6258999;22;20417;-93
2022/06/23 06:14:57;;;;;;;7.67;4.97;;;21.60;99.90;;;;;;6252478;22;20393;-91
2022/06/23 06:17:25;;;;;;;4.60;4.00;;;21.60;99.90;;;;;;6252301;22;20413;-94
2022/06/23 06:19:53;;;;;;;5.77;4.37;;;21.70;99.90;;;;;;6278161;22;20361;-94
2022/06/23 06:22:51;;;;;;;4.40;3.97;;;21.70;99.90;;;;;;6278694;22;20397;-94
2022/06/23 06:25:31;;;;;;;4.70;4.00;;;21.70;99.90;;;;;;6255019;22;20718;-93
2022/06/23 06:28:08;;;;;;;5.60;4.67;;;21.80;99.90;;;;;;6258082;22;20401;-91
2022/06/23 06:30:38;;;;;;;5.83;4.70;;;21.80;99.90;;;;;;6258137;22;20377;-90
2022/06/23 06:33:04;;;;;;;5.77;4.80;;;21.90;99.90;;;;;;6250454;22;20428;-94
2022/06/23 06:35:43;;;;;;;5.80;4.90;;;21.90;99.90;;;;;;6251493;22;20468;-90
2022/06/23 06:38:15;;;;;;;5.03;4.40;;;21.90;99.90;;;;;;6250240;22;20405;-90
2022/06/23 06:40:45;;;;;;;5.07;4.40;;;22.00;99.90;;;;;;6252765;22;20441;-91
2022/06/23 06:43:18;;;;;;;4.50;3.70;;;22.00;99.90;;;;;;6249005;22;20746;-91
2022/06/23 06:45:45;;;;;;;5.40;3.87;;;22.10;99.90;;;;;;6255673;22;20506;-91
2022/06/23 06:48:24;;;;;;;4.23;3.83;;;22.10;99.90;;;;;;6248637;22;20437;-93
2022/06/23 06:50:56;;;;;;;5.40;4.10;;;22.20;99.90;;;;;;6249741;22;20435;-91
2022/06/23 06:53:35;;;;;;;3.47;3.27;;;22.20;99.90;;;;;;6275599;22;20411;-91
2022/06/23 06:56:35;;;;;;;4.93;3.90;;;22.20;99.90;;;;;;6277403;22;20377;-93
2022/06/23 06:59:22;;;;;;;3.67;3.10;;;22.30;99.90;;;;;;6250099;22;20469;-90
2022/06/23 07:02:01;;;;;;;3.60;3.27;;;22.30;99.90;;;;;;6254160;22;20865;-91
2022/06/23 07:04:32;;;;;;;5.53;3.67;;;22.30;99.90;;;;;;6251465;22;20461;-89
2022/06/23 07:07:03;;;;;;;4.43;3.50;;;22.30;99.90;;;;;;6252627;22;20817;-89
2022/06/23 07:09:42;;;;;;;3.77;2.50;;;22.40;99.90;;;;;;6251206;22;20382;-91
2022/06/23 07:12:25;;;;;;;4.43;3.37;;;22.40;99.90;;;;;;6243012;22;20433;-89
2022/06/23 07:14:54;;;;;;;4.60;4.20;;;22.50;99.90;;;;;;6254781;22;20390;-91
2022/06/23 07:17:37;;;;;;;5.23;3.93;;;22.60;99.90;;;;;;6250312;22;20422;-88
2022/06/23 07:20:10;;;;;;;3.90;3.50;;;22.60;99.90;;;;;;6249201;22;20385;-92
2022/06/23 07:22:45;;;;;;;5.00;3.97;;;22.70;99.90;;;;;;6245499;22;20421;-89
2022/06/23 07:25:17;;;;;;;5.40;4.40;;;22.80;99.90;;;;;;6275022;22;20990;-92
2022/06/23 07:27:53;;;;;;;5.33;4.00;;;22.80;99.90;;;;;;6249178;22;20417;-92
2022/06/23 07:30:30;;;;;;;6.70;3.87;;;22.90;99.90;;;;;;6249824;22;20396;-92
2022/06/23 07:33:12;;;;;;;4.27;3.87;;;22.90;99.90;;;;;;6277114;22;20486;-89
2022/06/23 07:35:44;;;;;;;4.17;3.77;;;22.90;99.90;;;;;;6254300;22;20378;-92
2022/06/23 07:38:28;;;;;;;4.93;4.37;;;22.90;99.90;;;;;;6280320;22;20413;-92
2022/06/23 07:40:57;;;;;;;4.90;4.20;;;23.00;99.90;;;;;;6254896;22;20390;-89
2022/06/23 07:43:40;;;;;;;7.00;5.50;;;23.10;99.90;;;;;;6249542;22;20414;-91
2022/06/23 07:46:06;;;;;;;6.47;5.17;;;23.10;99.90;;;;;;6249109;22;20475;-92
2022/06/23 07:48:34;;;;;;;6.37;4.90;;;23.20;99.90;;;;;;6251065;22;20438;-92
2022/06/23 07:51:04;;;;;;;4.83;4.43;;;23.30;99.90;;;;;;6252815;22;20379;-89
2022/06/23 07:53:37;;;;;;;4.67;4.00;;;23.30;99.90;;;;;;6252428;22;20414;-90
2022/06/23 07:56:05;;;;;;;6.30;4.37;;;23.40;99.90;;;;;;6250922;22;20461;-92
2022/06/23 07:58:34;;;;;;;5.17;4.57;;;23.40;99.90;;;;;;6255722;22;20422;-89
2022/06/23 08:01:08;;;;;;;5.70;4.83;;;23.50;99.90;;;;;;6248088;22;20408;-90
2022/06/23 08:03:58;;;;;;;4.93;4.43;;;23.60;99.90;;;;;;6249510;22;20425;-92
2022/06/23 08:06:25;;;;;;;5.37;4.83;;;23.60;99.90;;;;;;6250652;22;20492;-90
2022/06/23 08:08:56;;;;;;;9.70;5.13;;;23.70;99.90;;;;;;6250635;22;20739;-88
2022/06/23 08:14:16;;;;;;;4.97;4.40;;;23.80;99.90;;;;;;6274539;22;20696;-89
2022/06/23 08:16:49;;;;;;;8.57;5.77;;;23.80;99.90;;;;;;6247149;22;20441;-90
2022/06/23 08:19:35;;;;;;;10.00;5.40;;;23.90;99.90;;;;;;6249229;22;20451;-92
2022/06/23 08:22:05;;;;;;;6.33;5.17;;;23.90;99.90;;;;;;6248232;22;20422;-89
2022/06/23 08:24:32;;;;;;;6.03;5.00;;;23.90;99.90;;;;;;6251384;22;20413;-89
2022/06/23 08:27:09;;;;;;;6.57;5.60;;;24.00;99.90;;;;;;6251348;22;20478;-92
2022/06/23 08:29:41;;;;;;;5.93;5.33;;;24.00;99.90;;;;;;6250095;22;20386;-89
2022/06/23 08:32:07;;;;;;;5.87;5.20;;;24.00;99.90;;;;;;6249721;22;20918;-89
2022/06/23 08:34:35;;;;;;;6.20;5.20;;;24.10;99.90;;;;;;6277626;22;20420;-92
2022/06/23 08:37:07;;;;;;;7.90;5.20;;;24.10;99.90;;;;;;6275846;22;20461;-89
2022/06/23 08:39:32;;;;;;;6.30;5.47;;;24.10;99.90;;;;;;6279607;22;20402;-92
2022/06/23 08:42:22;;;;;;;6.13;5.57;;;24.20;99.90;;;;;;6261382;22;20416;-89
2022/06/23 08:45:19;;;;;;;6.63;5.23;;;24.20;99.90;;;;;;6249978;22;20153;-92
2022/06/23 08:47:50;;;;;;;5.00;4.40;;;24.20;99.90;;;;;;6249091;22;20453;-92
2022/06/23 08:50:23;;;;;;;6.80;5.40;;;24.30;99.90;;;;;;6250215;22;20470;-89
2022/06/23 08:52:55;;;;;;;5.90;5.07;;;24.30;99.90;;;;;;6275982;22;20739;-89
2022/06/23 08:55:27;;;;;;;6.33;5.53;;;24.30;99.90;;;;;;6251833;22;20441;-89
2022/06/23 08:58:02;;;;;;;6.83;5.03;;;24.30;99.90;;;;;;6251391;22;20426;-89
2022/06/23 09:00:51;;;;;;;9.53;4.07;;;24.40;99.90;;;;;;6253096;22;20386;-90
2022/06/23 09:03:23;;;;;;;4.93;4.50;;;24.40;99.90;;;;;;6205595;22;20419;-89
2022/06/23 09:06:14;;;;;;;5.03;4.53;;;24.40;99.90;;;;;;6248838;22;20438;-89
2022/06/23 09:08:52;;;;;;;5.33;4.60;;;24.50;99.90;;;;;;6277914;22;20398;-92
2022/06/23 09:11:43;;;;;;;5.20;4.70;;;24.50;99.90;;;;;;6261854;22;20387;-92
2022/06/23 09:14:35;;;;;;;5.50;4.97;;;24.60;99.90;;;;;;6249433;22;20948;-92
2022/06/23 09:17:21;;;;;;;5.13;4.57;;;24.60;99.90;;;;;;6278056;22;20478;-92
2022/06/23 09:19:52;;;;;;;4.83;4.33;;;24.60;99.90;;;;;;6250766;22;20380;-89
2022/06/23 09:22:35;;;;;;;4.80;4.30;;;24.60;99.90;;;;;;6249434;22;20508;-87
2022/06/23 09:25:20;;;;;;;4.60;4.20;;;24.70;99.90;;;;;;6248669;22;20392;-92
2022/06/23 09:28:04;;;;;;;4.93;4.47;;;24.70;99.90;;;;;;6286604;22;20468;-91
2022/06/23 09:31:00;;;;;;;4.60;4.20;;;24.70;99.90;;;;;;6274886;22;20456;-92
2022/06/23 09:33:41;;;;;;;4.70;4.30;;;24.70;99.90;;;;;;6276400;22;20412;-89
2022/06/23 09:36:41;;;;;;;5.73;5.00;;;24.70;99.90;;;;;;6250215;22;20432;-89
2022/06/23 09:39:13;;;;;;;4.73;4.23;;;24.70;99.90;;;;;;6280997;22;20378;-89
2022/06/23 09:42:10;;;;;;;4.53;4.13;;;24.70;99.90;;;;;;6253000;22;20426;-89
2022/06/23 09:44:48;;;;;;;4.80;4.20;;;24.70;99.90;;;;;;6252234;22;20433;-89
2022/06/23 09:48:09;;;;;;;5.97;5.37;;;24.70;99.90;;;;;;6251532;22;20557;-92
2022/06/23 09:51:03;;;;;;;5.40;4.57;;;24.80;99.90;;;;;;6208969;22;20384;-89
2022/06/23 09:53:52;;;;;;;4.43;4.03;;;24.80;99.90;;;;;;6254293;22;20446;-91
2022/06/23 09:56:59;;;;;;;5.03;4.53;;;24.90;99.90;;;;;;6253211;22;20383;-89
2022/06/23 09:59:30;;;;;;;5.13;4.57;;;24.90;99.90;;;;;;6177628;22;20386;-92
2022/06/23 10:02:22;;;;;;;7.53;5.20;;;25.00;99.90;;;;;;6253670;22;20426;-90
2022/06/23 10:04:56;;;;;;;7.37;5.00;;;25.10;99.90;;;;;;6251691;22;20967;-90
2022/06/23 10:07:49;;;;;;;4.40;4.00;;;25.10;99.90;;;;;;6255203;22;20455;-90
2022/06/23 10:10:47;;;;;;;4.93;4.53;;;25.20;99.90;;;;;;6250329;22;20425;-93
2022/06/23 10:13:25;;;;;;;5.30;4.80;;;25.20;99.90;;;;;;6249181;22;20745;-90
2022/06/23 10:16:27;;;;;;;4.80;4.30;;;25.30;99.90;;;;;;6250543;22;20424;-90
2022/06/23 10:18:55;;;;;;;5.83;5.03;;;25.30;99.90;;;;;;6250677;22;20432;-92
2022/06/23 10:21:46;;;;;;;4.97;4.23;;;25.30;99.90;;;;;;6253730;22;20881;-89
2022/06/23 10:24:48;;;;;;;4.23;3.90;;;25.40;99.90;;;;;;6246867;22;20393;-93
2022/06/23 10:27:43;;;;;;;5.67;4.90;;;25.40;99.90;;;;;;6277068;22;20446;-93
2022/06/23 10:30:29;;;;;;;4.53;4.17;;;25.50;99.90;;;;;;6248402;22;20392;-93
2022/06/23 10:33:04;;;;;;;5.63;5.10;;;25.60;99.90;;;;;;6250027;22;20454;-90
2022/06/23 10:35:36;;;;;;;4.70;4.30;;;25.60;99.90;;;;;;6248289;22;20377;-94
2022/06/23 10:38:20;;;;;;;4.67;4.23;;;25.60;99.90;;;;;;6247438;22;20901;-89
2022/06/23 10:41:14;;;;;;;4.77;4.37;;;25.60;99.90;;;;;;6245059;22;20408;-93
2022/06/23 10:44:11;;;;;;;4.40;4.00;;;25.60;99.90;;;;;;6249416;22;20389;-92
2022/06/23 10:46:42;;;;;;;4.80;4.40;;;25.70;99.90;;;;;;6247211;22;20449;-94
2022/06/23 10:49:29;;;;;;;5.80;5.20;;;25.70;99.90;;;;;;6250005;22;20389;-94
2022/06/23 10:52:33;;;;;;;5.40;4.90;;;25.70;99.90;;;;;;6252578;22;20510;-92
2022/06/23 10:55:23;;;;;;;4.70;4.27;;;25.70;99.90;;;;;;6246123;22;20458;-93
2022/06/23 10:58:17;;;;;;;10.23;5.23;;;25.70;99.90;;;;;;6245966;22;20409;-90
2022/06/23 11:01:04;;;;;;;4.20;3.80;;;25.70;99.90;;;;;;6274438;22;20718;-94
2022/06/23 11:03:40;;;;;;;5.27;4.27;;;25.80;99.90;;;;;;6246875;22;20839;-93
2022/06/23 11:06:38;;;;;;;5.03;4.57;;;25.80;99.90;;;;;;6245074;22;20523;-93
2022/06/23 11:09:07;;;;;;;8.60;4.63;;;25.80;99.90;;;;;;6247264;22;20396;-90
2022/06/23 11:11:42;;;;;;;4.37;4.00;;;25.80;99.90;;;;;;6249967;22;20424;-94
2022/06/23 11:14:16;;;;;;;6.63;4.80;;;25.90;99.90;;;;;;6250527;22;20389;-93
2022/06/23 11:16:52;;;;;;;5.40;4.90;;;25.90;99.90;;;;;;6268093;22;20424;-92
2022/06/23 11:19:51;;;;;;;5.60;4.70;;;26.00;99.90;;;;;;6245901;22;20386;-93
2022/06/23 11:22:32;;;;;;;4.90;4.50;;;26.00;99.90;;;;;;6246845;22;20911;-92
2022/06/23 11:25:02;;;;;;;5.47;4.93;;;26.00;99.90;;;;;;6247321;22;20381;-93
2022/06/23 11:28:06;;;;;;;5.30;4.80;;;26.00;99.90;;;;;;6247239;22;20536;-90
2022/06/23 11:31:08;;;;;;;5.00;4.60;;;26.10;99.90;;;;;;6154800;23;20476;-93
2022/06/23 11:33:51;;;;;;;4.70;4.30;;;26.10;99.90;;;;;;6247565;22;20966;-93
2022/06/23 11:36:23;;;;;;;5.60;5.13;;;26.20;99.90;;;;;;6250547;22;20393;-93
2022/06/23 11:39:11;;;;;;;7.40;5.30;;;26.20;99.90;;;;;;6254183;22;20373;-93
2022/06/23 11:41:57;;;;;;;6.17;5.60;;;26.20;99.90;;;;;;6247392;22;20962;-93
2022/06/23 11:44:35;;;;;;;5.27;4.77;;;26.20;99.90;;;;;;6247571;22;20382;-91
2022/06/23 11:47:19;;;;;;;6.37;5.53;;;26.30;99.90;;;;;;6276584;22;20448;-93
2022/06/23 11:50:06;;;;;;;5.60;5.10;;;26.30;99.90;;;;;;6251374;22;20921;-91
2022/06/23 11:52:41;;;;;;;4.60;4.10;;;26.30;99.90;;;;;;6249567;22;20429;-93
2022/06/23 11:55:55;;;;;;;5.00;4.50;;;26.40;99.90;;;;;;6252395;22;20389;-93
2022/06/23 11:59:00;;;;;;;4.50;4.10;;;26.40;99.90;;;;;;6228125;22;20477;-90
2022/06/23 12:01:26;;;;;;;5.00;4.50;;;26.50;99.90;;;;;;6275085;22;20511;-90
2022/06/23 12:04:10;;;;;;;4.90;4.50;;;26.50;99.90;;;;;;6249939;22;20382;-91
2022/06/23 12:06:36;;;;;;;4.70;4.30;;;26.50;99.90;;;;;;6251901;22;20457;-90
2022/06/23 12:09:21;;;;;;;5.60;5.00;;;26.60;99.90;;;;;;6252166;22;20389;-93
2022/06/23 12:11:48;;;;;;;4.73;4.20;;;26.60;99.90;;;;;;6248425;22;20506;-92
2022/06/23 12:14:16;;;;;;;5.23;4.33;;;26.70;99.90;;;;;;6250495;22;20507;-90
2022/06/23 12:16:51;;;;;;;3.97;3.67;;;26.70;99.90;;;;;;6249793;22;20424;-90
2022/06/23 12:19:22;;;;;;;4.60;4.07;;;26.80;99.90;;;;;;6251221;22;20369;-90
2022/06/23 12:22:08;;;;;;;4.90;4.50;;;26.90;99.90;;;;;;6257421;22;20760;-90
2022/06/23 12:24:58;;;;;;;3.97;3.60;;;26.90;99.90;;;;;;6250313;22;20465;-93
2022/06/23 12:27:38;;;;;;;5.37;4.90;;;27.00;99.90;;;;;;6249773;22;20455;-89
2022/06/23 12:30:15;;;;;;;5.00;4.60;;;27.00;99.90;;;;;;6250089;22;20432;-92
2022/06/23 12:32:59;;;;;;;5.10;4.00;;;27.10;99.90;;;;;;6249948;22;20413;-89
2022/06/23 12:35:35;;;;;;;4.30;3.90;;;27.10;99.90;;;;;;6250816;22;20404;-92
2022/06/23 12:38:41;;;;;;;4.00;3.47;;;27.20;99.90;;;;;;6252584;22;20425;-89
2022/06/23 12:42:02;;;;;;;4.20;3.73;;;27.20;99.90;;;;;;6238435;22;20436;-92
2022/06/23 12:44:43;;;;;;;5.47;4.97;;;27.20;99.90;;;;;;6231590;22;20397;-92
2022/06/23 12:47:23;;;;;;;4.07;3.77;;;27.30;99.90;;;;;;6244071;23;20522;-92
2022/06/23 12:50:16;;;;;;;3.93;3.63;;;27.30;99.90;;;;;;6247035;23;20385;-92
2022/06/23 12:53:18;;;;;;;3.67;3.37;;;27.30;99.90;;;;;;6247027;23;20497;-92
2022/06/23 12:55:44;;;;;;;4.70;4.00;;;27.30;99.90;;;;;;6247555;23;20440;-89
2022/06/23 12:58:42;;;;;;;4.20;3.80;;;27.40;99.90;;;;;;6248056;23;20425;-92
2022/06/23 13:01:17;;;;;;;5.20;4.70;;;27.40;99.90;;;;;;6252026;23;20178;-89
2022/06/23 13:03:48;;;;;;;5.50;5.00;;;27.30;99.90;;;;;;6244146;23;20717;-89
2022/06/23 13:06:38;;;;;;;4.50;4.10;;;27.40;99.90;;;;;;6244263;23;21025;-89
2022/06/23 13:09:13;;;;;;;4.17;3.77;;;27.40;99.90;;;;;;6244213;23;20371;-90
2022/06/23 13:12:01;;;;;;;4.07;3.67;;;27.40;99.90;;;;;;6242836;23;20509;-90
2022/06/23 13:14:47;;;;;;;4.83;4.10;;;27.40;99.90;;;;;;6243508;23;20398;-92
2022/06/23 13:17:53;;;;;;;4.27;3.87;;;27.30;99.90;;;;;;6198171;23;20410;-89
2022/06/23 13:20:47;;;;;;;4.53;3.67;;;27.40;99.90;;;;;;6244681;23;20482;-92
2022/06/23 13:23:37;;;;;;;4.00;3.70;;;27.40;99.90;;;;;;6245888;23;20735;-93
2022/06/23 13:26:13;;;;;;;3.67;3.30;;;27.40;99.90;;;;;;6243560;23;20441;-89
2022/06/23 13:28:42;;;;;;;3.63;3.33;;;27.50;99.90;;;;;;6247495;23;20405;-90
2022/06/23 13:31:37;;;;;;;3.33;3.03;;;27.50;99.90;;;;;;6251007;23;20375;-89
2022/06/23 13:34:29;;;;;;;3.83;3.53;;;27.50;99.90;;;;;;6225588;23;20397;-92
2022/06/23 13:37:17;;;;;;;3.97;3.40;;;27.60;99.90;;;;;;6244977;23;20418;-92
2022/06/23 13:40:15;;;;;;;3.40;3.00;;;27.60;99.90;;;;;;6245809;23;20414;-91
2022/06/23 13:42:48;;;;;;;4.07;3.77;;;27.60;99.50;;;;;;6238171;23;20415;-89
2022/06/23 13:45:50;;;;;;;4.70;3.73;;;27.70;98.30;;;;;;6238868;23;20804;-89
2022/06/23 13:48:32;;;;;;;4.13;3.20;;;27.70;98.60;;;;;;6237092;23;20452;-89
2022/06/23 13:51:41;;;;;;;3.47;3.07;;;27.70;98.70;;;;;;6240263;23;20417;-89
2022/06/23 13:54:23;;;;;;;3.60;3.30;;;27.70;99.10;;;;;;6241203;23;20422;-89
2022/06/23 13:57:01;;;;;;;3.50;3.23;;;27.70;98.90;;;;;;6243358;23;20409;-92
2022/06/23 13:59:31;;;;;;;3.67;3.37;;;27.70;98.50;;;;;;6241352;23;20372;-89
2022/06/23 14:02:10;;;;;;;3.10;2.90;;;27.80;99.00;;;;;;6238127;23;20437;-89